Time;durP1;ratioP1;P1;durP2;ratioP2;P2;SDS_P1;SDS_P2;PMS_P1;PMS_P2;Temp;Humidity;BMP_temperature;BMP_pressure;BME280_temperature;BME280_humidity;BME280_pressure;Samples;Min_cycle;Max_cycle;Signal;HPM_P1;HPM_P2
2020/12/21 00:01:51;;;;;;;21.05;15.30;;;;;;;3.63;97.63;101508.31;4965787;28;20058;-42
2020/12/21 00:04:18;;;;;;;23.05;14.90;;;;;;;3.37;97.91;101517.56;4968441;28;20058;-45
2020/12/21 00:06:51;;;;;;;24.48;15.70;;;;;;;3.41;98.26;101519.53;4966214;28;20050;-43
2020/12/21 00:09:18;;;;;;;21.30;15.20;;;;;;;3.82;97.45;101524.81;4968096;28;20042;-46
2020/12/21 00:11:45;;;;;;;21.95;14.95;;;;;;;3.76;96.79;101524.44;4965984;28;20061;-42
2020/12/21 00:14:12;;;;;;;24.13;14.73;;;;;;;3.78;97.21;101532.13;4970282;28;20065;-43
2020/12/21 00:16:40;;;;;;;23.92;14.32;;;;;;;3.88;96.34;101531.06;4967010;28;20397;-44
2020/12/21 00:19:09;;;;;;;24.13;14.15;;;;;;;3.68;97.44;101527.22;4969059;28;20051;-48
2020/12/21 00:21:39;;;;;;;25.38;14.52;;;;;;;3.79;97.09;101531.34;4967880;28;20050;-48
2020/12/21 00:24:07;;;;;;;26.50;15.32;;;;;;;3.57;96.97;101531.56;4971596;28;20059;-42
2020/12/21 00:26:34;;;;;;;20.92;14.02;;;;;;;3.68;97.47;101525.56;4968002;28;20054;-42
2020/12/21 00:29:01;;;;;;;23.27;15.00;;;;;;;3.40;98.81;101529.56;4967135;28;20047;-46
2020/12/21 00:31:32;;;;;;;23.83;14.35;;;;;;;3.66;98.53;101529.66;4969872;28;20057;-41
2020/12/21 00:34:02;;;;;;;21.33;14.07;;;;;;;3.88;97.56;101526.00;4966634;28;20588;-40
2020/12/21 00:36:29;;;;;;;22.92;14.18;;;;;;;3.67;97.38;101525.47;4969356;28;20058;-41
2020/12/21 00:38:56;;;;;;;23.90;15.18;;;;;;;3.82;96.93;101534.06;4966037;28;20047;-40
2020/12/21 00:41:24;;;;;;;23.73;15.13;;;;;;;3.89;97.30;101533.72;4970304;28;20050;-41
2020/12/21 00:43:51;;;;;;;24.58;14.30;;;;;;;3.84;97.45;101542.69;4964895;28;20062;-40
2020/12/21 00:46:24;;;;;;;24.33;14.85;;;;;;;3.77;97.23;101541.38;4963934;28;20053;-41
2020/12/21 00:48:52;;;;;;;25.33;14.52;;;;;;;3.64;98.36;101542.97;4964818;28;20047;-44
2020/12/21 00:51:19;;;;;;;24.48;14.55;;;;;;;3.71;99.01;101545.16;4967647;28;20504;-41
2020/12/21 00:53:47;;;;;;;25.15;15.70;;;;;;;3.47;98.82;101541.88;4965170;28;20042;-41
2020/12/21 00:56:15;;;;;;;24.92;14.95;;;;;;;3.64;100.00;101545.53;4970170;28;20429;-41
2020/12/21 00:58:42;;;;;;;25.10;15.35;;;;;;;3.31;100.00;101542.47;4967308;28;20047;-41
2020/12/21 01:01:13;;;;;;;22.90;14.10;;;;;;;3.72;99.84;101541.84;4969004;28;20059;-43
2020/12/21 01:03:52;;;;;;;25.40;15.07;;;;;;;3.57;99.43;101555.25;4967286;28;20043;-41
2020/12/21 01:06:19;;;;;;;23.80;15.07;;;;;;;3.80;99.81;101553.38;4969982;28;20058;-42
2020/12/21 01:08:55;;;;;;;24.70;15.38;;;;;;;3.62;100.00;101555.56;4964994;28;20668;-41
2020/12/21 01:11:22;;;;;;;22.88;14.18;;;;;;;3.54;100.00;101551.63;4963046;28;20053;-41
2020/12/21 01:13:49;;;;;;;24.73;14.82;;;;;;;3.69;100.00;101555.19;4964499;28;20038;-41
2020/12/21 01:16:19;;;;;;;24.10;14.25;;;;;;;3.71;100.00;101562.91;4970273;28;20054;-40
2020/12/21 01:18:47;;;;;;;24.05;14.43;;;;;;;3.60;100.00;101564.69;4966654;28;20621;-45
2020/12/21 01:21:22;;;;;;;23.17;14.07;;;;;;;3.80;99.87;101561.84;4969741;28;20054;-45
2020/12/21 01:23:48;;;;;;;22.95;13.98;;;;;;;4.06;98.70;101555.09;4966442;28;20050;-42
2020/12/21 01:26:15;;;;;;;25.95;15.02;;;;;;;3.80;99.73;101559.31;4969757;28;20500;-45
2020/12/21 01:28:42;;;;;;;23.95;14.45;;;;;;;3.70;99.86;101559.50;4966369;28;20105;-41
2020/12/21 01:31:08;;;;;;;26.10;15.65;;;;;;;3.41;100.00;101557.50;4968054;28;20051;-41
2020/12/21 01:33:34;;;;;;;25.08;15.25;;;;;;;3.19;100.00;101551.72;4966821;28;20535;-45
2020/12/21 01:36:01;;;;;;;27.40;15.35;;;;;;;3.11;100.00;101553.75;4970987;28;20047;-44
2020/12/21 01:38:28;;;;;;;24.10;15.15;;;;;;;3.37;100.00;101565.66;4968185;28;20069;-43
2020/12/21 01:40:54;;;;;;;25.23;14.82;;;;;;;3.14;100.00;101548.88;4964572;28;20051;-40
2020/12/21 01:43:20;;;;;;;25.05;15.00;;;;;;;3.16;100.00;101551.53;4969170;28;20050;-41
2020/12/21 01:45:47;;;;;;;27.20;15.77;;;;;;;3.00;100.00;101552.13;4964368;28;20055;-45
2020/12/21 01:48:13;;;;;;;29.08;16.85;;;;;;;2.94;100.00;101549.16;4968800;28;20042;-46
2020/12/21 01:50:41;;;;;;;25.58;15.55;;;;;;;3.11;100.00;101550.34;4965832;28;20058;-42
2020/12/21 01:53:10;;;;;;;26.67;16.02;;;;;;;3.41;100.00;101549.03;4967445;28;20047;-43
2020/12/21 01:55:42;;;;;;;27.45;16.42;;;;;;;3.19;100.00;101555.16;4966027;28;20066;-46
2020/12/21 01:58:08;;;;;;;26.92;15.70;;;;;;;3.27;100.00;101553.16;4967326;28;20051;-44
2020/12/21 02:00:34;;;;;;;28.02;15.75;;;;;;;3.35;100.00;101557.09;4966420;28;20050;-48
2020/12/21 02:03:01;;;;;;;24.63;15.80;;;;;;;3.36;100.00;101563.03;4965428;28;20051;-42
2020/12/21 02:05:28;;;;;;;24.05;15.85;;;;;;;3.57;100.00;101559.44;4968089;28;20100;-41
2020/12/21 02:07:54;;;;;;;28.27;16.17;;;;;;;3.65;100.00;101553.25;4963899;28;20048;-45
2020/12/21 02:10:21;;;;;;;26.23;15.88;;;;;;;3.55;100.00;101550.84;4968924;28;20058;-42
2020/12/21 02:12:48;;;;;;;22.83;14.82;;;;;;;3.61;100.00;101548.75;4963670;28;20394;-45
2020/12/21 02:15:14;;;;;;;27.00;16.02;;;;;;;3.47;100.00;101542.75;4969075;28;20050;-41
2020/12/21 02:17:41;;;;;;;29.58;16.42;;;;;;;3.56;100.00;101542.50;4962693;28;20592;-42
2020/12/21 02:20:07;;;;;;;27.90;16.35;;;;;;;3.28;100.00;101538.09;4966923;28;20513;-42
2020/12/21 02:22:33;;;;;;;25.23;15.38;;;;;;;3.20;100.00;101544.25;4965656;28;20051;-42
2020/12/21 02:25:00;;;;;;;23.85;15.55;;;;;;;3.59;100.00;101545.22;4964675;28;20142;-42
2020/12/21 02:27:28;;;;;;;27.38;16.45;;;;;;;3.89;100.00;101548.94;4967336;28;20045;-43
2020/12/21 02:29:54;;;;;;;24.77;15.73;;;;;;;3.88;100.00;101557.28;4963936;28;20047;-41
2020/12/21 02:32:20;;;;;;;22.95;14.50;;;;;;;4.05;100.00;101550.81;4968142;28;20038;-41
2020/12/21 02:34:52;;;;;;;24.50;16.50;;;;;;;3.95;99.93;101554.38;4963093;28;20106;-40
2020/12/21 02:37:18;;;;;;;26.95;15.75;;;;;;;3.62;100.00;101562.28;4968571;28;20465;-43
2020/12/21 02:39:45;;;;;;;25.17;15.85;;;;;;;3.68;100.00;101560.16;4964223;28;20136;-43
2020/12/21 02:42:12;;;;;;;24.33;15.93;;;;;;;3.77;100.00;101561.63;4967637;28;20085;-43
2020/12/21 02:44:38;;;;;;;23.73;14.52;;;;;;;3.89;100.00;101556.53;4965428;28;20785;-43
2020/12/21 02:47:04;;;;;;;25.13;15.15;;;;;;;4.16;100.00;101560.00;4965936;28;20043;-43
2020/12/21 02:49:31;;;;;;;25.42;15.52;;;;;;;3.79;100.00;101561.72;4966830;28;20069;-43
2020/12/21 02:51:57;;;;;;;26.27;14.77;;;;;;;4.07;100.00;101572.06;4963984;28;20576;-43
2020/12/21 02:54:24;;;;;;;21.63;14.70;;;;;;;4.56;100.00;101568.50;4968214;28;20054;-42
2020/12/21 02:56:54;;;;;;;26.58;16.63;;;;;;;3.86;100.00;101565.56;4962906;28;20051;-43
2020/12/21 02:59:20;;;;;;;22.55;14.57;;;;;;;3.90;100.00;101570.06;4963967;28;20054;-42
2020/12/21 03:01:47;;;;;;;25.45;15.60;;;;;;;4.51;100.00;101569.88;4963338;28;20524;-43
2020/12/21 03:04:14;;;;;;;24.77;15.50;;;;;;;4.30;100.00;101566.84;4967915;28;20046;-41
2020/12/21 03:06:41;;;;;;;25.88;15.50;;;;;;;4.22;100.00;101567.13;4964118;28;20133;-43
2020/12/21 03:09:07;;;;;;;22.35;14.52;;;;;;;4.38;100.00;101561.38;4966844;28;20122;-41
2020/12/21 03:11:34;;;;;;;26.30;15.98;;;;;;;4.40;100.00;101559.84;4965928;28;20086;-40
2020/12/21 03:14:00;;;;;;;24.05;15.30;;;;;;;4.15;100.00;101572.56;4964728;28;20106;-42
2020/12/21 03:16:28;;;;;;;26.40;15.27;;;;;;;4.28;100.00;101570.03;4967186;28;20144;-40
2020/12/21 03:18:54;;;;;;;24.40;15.25;;;;;;;3.94;100.00;101566.97;4963496;28;20050;-43
2020/12/21 03:21:20;;;;;;;24.52;14.82;;;;;;;4.37;100.00;101573.19;4968350;28;20460;-45
2020/12/21 03:23:47;;;;;;;25.75;16.02;;;;;;;4.13;100.00;101569.06;4963255;28;20509;-42
2020/12/21 03:26:13;;;;;;;23.90;15.05;;;;;;;4.67;100.00;101575.91;4968154;28;20058;-41
2020/12/21 03:28:41;;;;;;;20.42;13.57;;;;;;;4.63;99.26;101573.97;4965161;28;20050;-43
2020/12/21 03:31:07;;;;;;;23.40;15.18;;;;;;;4.52;98.68;101576.69;4966404;28;20047;-49
2020/12/21 03:33:34;;;;;;;24.40;14.63;;;;;;;4.66;99.08;101580.09;4965621;28;20108;-43
2020/12/21 03:36:00;;;;;;;24.02;14.05;;;;;;;4.51;99.49;101585.09;4967955;28;20474;-46
2020/12/21 03:38:28;;;;;;;23.65;14.55;;;;;;;4.70;99.17;101576.13;4970558;28;20058;-44
2020/12/21 03:40:55;;;;;;;22.67;14.40;;;;;;;4.67;98.86;101576.81;4967249;28;20054;-43
2020/12/21 03:43:21;;;;;;;22.05;14.35;;;;;;;4.23;99.77;101563.81;4971695;28;20104;-40
2020/12/21 03:45:49;;;;;;;25.00;15.38;;;;;;;4.49;100.00;101562.97;4966492;28;20117;-41
2020/12/21 03:48:16;;;;;;;25.15;14.70;;;;;;;4.61;99.57;101566.25;4971632;28;20578;-42
2020/12/21 03:50:44;;;;;;;24.35;14.73;;;;;;;4.61;98.47;101563.72;4968339;28;20495;-40
2020/12/21 03:53:10;;;;;;;24.77;15.02;;;;;;;4.44;99.42;101551.66;4970349;28;20134;-40
2020/12/21 03:55:37;;;;;;;22.70;14.93;;;;;;;4.48;99.73;101558.66;4970355;28;20105;-42
2020/12/21 03:58:04;;;;;;;24.52;14.73;;;;;;;4.44;100.00;101559.25;4970722;28;20043;-43
2020/12/21 04:00:31;;;;;;;24.92;14.50;;;;;;;4.52;100.00;101558.06;4971711;28;20086;-44
2020/12/21 04:02:58;;;;;;;25.25;14.65;;;;;;;4.71;99.24;101566.06;4967634;28;20058;-42
2020/12/21 04:05:42;;;;;;;24.48;14.57;;;;;;;4.55;98.47;101570.94;4965350;28;20440;-42
2020/12/21 04:08:09;;;;;;;25.63;14.60;;;;;;;4.61;98.57;101566.25;4969969;28;20047;-48
2020/12/21 04:10:35;;;;;;;26.60;16.70;;;;;;;4.41;99.28;101561.59;4968901;28;20054;-43
2020/12/21 04:13:01;;;;;;;26.83;15.30;;;;;;;4.40;99.23;101565.78;4967937;28;20051;-42
2020/12/21 04:15:28;;;;;;;27.27;15.65;;;;;;;4.33;100.00;101567.03;4970405;28;20039;-41
2020/12/21 04:17:54;;;;;;;23.73;14.73;;;;;;;4.20;100.00;101561.06;4966620;28;20043;-42
2020/12/21 04:20:21;;;;;;;25.30;15.43;;;;;;;4.37;100.00;101563.03;4971318;28;20050;-47
2020/12/21 04:22:47;;;;;;;26.25;15.07;;;;;;;4.17;100.00;101564.28;4968933;28;20046;-47
2020/12/21 04:25:14;;;;;;;23.98;14.80;;;;;;;4.72;99.56;101567.84;4971168;28;20116;-43
2020/12/21 04:27:41;;;;;;;26.33;14.73;;;;;;;4.81;97.99;101568.41;4967912;28;20159;-45
2020/12/21 04:30:07;;;;;;;27.63;16.40;;;;;;;4.68;98.18;101554.84;4969549;28;20760;-47
2020/12/21 04:32:34;;;;;;;23.75;14.90;;;;;;;4.62;98.80;101562.06;4969431;28;20046;-44
2020/12/21 04:35:00;;;;;;;26.38;14.95;;;;;;;4.52;98.43;101556.41;4968457;28;20114;-44
2020/12/21 04:37:29;;;;;;;24.50;15.00;;;;;;;4.71;97.89;101555.03;4970880;28;20921;-42
2020/12/21 04:39:55;;;;;;;24.27;15.02;;;;;;;4.56;98.30;101557.47;4967418;28;20395;-45
2020/12/21 04:42:24;;;;;;;24.15;15.20;;;;;;;4.68;98.02;101563.34;4971812;28;20742;-45
2020/12/21 04:44:51;;;;;;;26.08;15.70;;;;;;;4.44;99.01;101557.59;4966388;28;20125;-41
2020/12/21 04:47:19;;;;;;;26.13;15.57;;;;;;;4.27;100.00;101559.03;4968093;28;20967;-43
2020/12/21 04:49:48;;;;;;;25.40;15.40;;;;;;;4.35;99.19;101551.94;4970193;28;20464;-41
2020/12/21 04:52:15;;;;;;;26.52;15.10;;;;;;;4.19;100.00;101552.56;4971595;28;20054;-47
2020/12/21 04:54:42;;;;;;;24.75;14.68;;;;;;;4.38;99.93;101557.19;4968418;28;20138;-41
2020/12/21 04:57:09;;;;;;;27.42;15.68;;;;;;;4.42;98.63;101559.13;4969989;28;20054;-47
2020/12/21 04:59:35;;;;;;;26.05;15.32;;;;;;;4.58;98.27;101558.47;4968757;28;20054;-41
2020/12/21 05:02:05;;;;;;;25.85;14.23;;;;;;;4.40;99.35;101549.69;4968058;28;20519;-44
2020/12/21 05:04:31;;;;;;;26.13;15.10;;;;;;;4.47;99.06;101546.75;4969986;28;20078;-43
2020/12/21 05:06:58;;;;;;;25.08;14.60;;;;;;;4.34;99.46;101550.16;4967236;28;20059;-41
2020/12/21 05:09:26;;;;;;;24.23;14.27;;;;;;;4.50;99.05;101555.44;4971211;28;20852;-44
2020/12/21 05:12:03;;;;;;;25.35;14.95;;;;;;;4.42;98.06;101564.22;4965951;28;20571;-41
2020/12/21 05:14:35;;;;;;;26.65;14.82;;;;;;;4.45;98.49;101559.34;4969601;28;20050;-43
2020/12/21 05:17:12;;;;;;;27.92;16.05;;;;;;;4.18;99.35;101553.38;4967641;28;20059;-42
2020/12/21 05:19:40;;;;;;;26.92;15.50;;;;;;;4.21;99.89;101553.56;4967599;28;20055;-47
2020/12/21 05:22:14;;;;;;;26.92;15.48;;;;;;;3.89;100.00;101545.50;4968936;28;20047;-43
2020/12/21 05:24:43;;;;;;;25.90;15.80;;;;;;;4.11;100.00;101552.84;4968044;28;20053;-48
2020/12/21 05:27:14;;;;;;;27.95;15.70;;;;;;;4.26;99.20;101561.47;4969438;28;20727;-47
2020/12/21 05:29:41;;;;;;;27.38;15.10;;;;;;;4.05;99.62;101544.06;4967620;28;20043;-42
2020/12/21 05:32:18;;;;;;;26.15;15.45;;;;;;;3.90;100.00;101550.69;4969032;28;20051;-44
2020/12/21 05:34:45;;;;;;;27.85;14.98;;;;;;;3.71;100.00;101557.84;4967314;28;20053;-44
2020/12/21 05:37:18;;;;;;;30.50;15.32;;;;;;;3.69;100.00;101559.38;4969941;28;20054;-46
2020/12/21 05:39:56;;;;;;;30.70;16.25;;;;;;;3.80;100.00;101564.38;4967505;28;20456;-41
2020/12/21 05:42:23;;;;;;;28.92;16.52;;;;;;;3.63;100.00;101562.38;4964727;28;20113;-44
2020/12/21 05:44:54;;;;;;;28.13;16.40;;;;;;;3.83;100.00;101566.22;4964850;28;20050;-48
2020/12/21 05:47:22;;;;;;;25.27;15.30;;;;;;;3.99;100.00;101561.41;4967395;28;20109;-45
2020/12/21 05:49:54;;;;;;;27.73;15.60;;;;;;;3.93;100.00;101568.63;4964123;28;20214;-41
2020/12/21 05:52:41;;;;;;;25.58;14.77;;;;;;;3.83;100.00;101572.16;4965711;28;20049;-43
2020/12/21 05:55:09;;;;;;;23.00;14.50;;;;;;;4.30;100.00;101571.91;4968493;28;20051;-41
2020/12/21 05:57:39;;;;;;;25.73;15.48;;;;;;;4.46;99.92;101560.22;4967647;28;20046;-41
2020/12/21 06:00:08;;;;;;;24.50;14.50;;;;;;;4.44;99.29;101567.75;4968021;28;20051;-42
2020/12/21 06:02:35;;;;;;;24.02;14.48;;;;;;;4.47;98.86;101567.03;4965825;28;20094;-41
2020/12/21 06:05:05;;;;;;;22.98;14.50;;;;;;;4.40;99.31;101570.84;4966482;28;20051;-45
2020/12/21 06:07:34;;;;;;;22.30;14.20;;;;;;;4.75;98.09;101569.66;4969296;28;20504;-43
2020/12/21 06:10:08;;;;;;;23.45;14.05;;;;;;;4.27;98.93;101565.75;4970637;28;20097;-44
2020/12/21 06:12:46;;;;;;;29.23;14.38;;;;;;;4.17;100.00;101576.09;4965894;28;20096;-43
2020/12/21 06:15:16;;;;;;;22.60;14.95;;;;;;;4.20;99.87;101574.59;4969714;28;20058;-45
2020/12/21 06:17:44;;;;;;;21.55;13.70;;;;;;;4.49;99.99;101571.44;4964647;28;20460;-51
2020/12/21 06:20:19;;;;;;;22.85;14.23;;;;;;;4.64;98.54;101574.06;4964595;28;20051;-43
2020/12/21 06:22:46;;;;;;;23.42;13.55;;;;;;;4.46;98.86;101562.75;4963749;28;20047;-43
2020/12/21 06:25:21;;;;;;;21.83;13.05;;;;;;;4.37;98.58;101563.03;4968312;28;20116;-41
2020/12/21 06:27:48;;;;;;;23.48;13.90;;;;;;;4.17;99.28;101569.34;4966813;28;20074;-50
2020/12/21 06:30:16;;;;;;;23.35;13.80;;;;;;;4.01;99.83;101559.84;4968451;28;20050;-44
2020/12/21 06:32:46;;;;;;;22.02;13.30;;;;;;;4.19;98.79;101567.78;4966872;28;20157;-49
2020/12/21 06:35:21;;;;;;;23.27;13.98;;;;;;;4.37;97.75;101580.78;4969836;28;20112;-44
2020/12/21 06:38:01;;;;;;;25.25;14.70;;;;;;;4.06;98.61;101573.69;4966481;28;20053;-42
2020/12/21 06:40:32;;;;;;;24.48;14.05;;;;;;;3.75;99.92;101578.41;4965968;28;20184;-42
2020/12/21 06:43:17;;;;;;;26.25;13.77;;;;;;;3.61;100.00;101584.19;4965823;28;20043;-44
2020/12/21 06:45:43;;;;;;;25.00;14.15;;;;;;;3.42;100.00;101584.59;4967514;28;20050;-43
2020/12/21 06:48:20;;;;;;;25.63;14.85;;;;;;;3.49;100.00;101583.34;4969254;28;20070;-43
2020/12/21 06:50:47;;;;;;;23.75;14.55;;;;;;;3.79;100.00;101584.53;4966714;28;20113;-42
2020/12/21 06:53:13;;;;;;;25.80;14.52;;;;;;;3.58;100.00;101587.38;4969070;28;20101;-41
2020/12/21 06:55:41;;;;;;;27.42;14.75;;;;;;;3.91;100.00;101587.03;4966857;28;20046;-42
2020/12/21 06:58:07;;;;;;;24.73;13.60;;;;;;;4.02;99.50;101584.44;4966659;28;20059;-45
2020/12/21 07:00:35;;;;;;;23.88;13.95;;;;;;;3.98;99.19;101591.75;4968164;28;20112;-44
2020/12/21 07:03:01;;;;;;;24.02;14.32;;;;;;;3.96;98.73;101596.69;4965787;28;20050;-40
2020/12/21 07:05:28;;;;;;;26.15;15.63;;;;;;;3.61;100.00;101594.31;4967598;28;20050;-40
2020/12/21 07:08:01;;;;;;;27.35;14.75;;;;;;;3.68;100.00;101603.22;4964455;28;20043;-42
2020/12/21 07:10:31;;;;;;;27.77;15.48;;;;;;;3.49;100.00;101604.47;4971067;28;20070;-41
2020/12/21 07:13:00;;;;;;;26.05;14.75;;;;;;;3.56;100.00;101616.81;4963774;28;20419;-42
2020/12/21 07:15:27;;;;;;;25.92;14.82;;;;;;;3.69;100.00;101615.09;4971585;28;20489;-40
2020/12/21 07:17:54;;;;;;;28.63;15.25;;;;;;;3.61;100.00;101624.72;4964792;28;20137;-42
2020/12/21 07:20:20;;;;;;;27.08;15.15;;;;;;;3.53;100.00;101625.84;4971257;28;20057;-40
2020/12/21 07:22:49;;;;;;;26.50;14.32;;;;;;;3.47;100.00;101627.97;4970849;28;20055;-42
2020/12/21 07:25:22;;;;;;;26.90;15.55;;;;;;;3.47;100.00;101625.44;4968494;28;20058;-42
2020/12/21 07:27:49;;;;;;;26.13;14.60;;;;;;;3.42;100.00;101616.59;4969841;28;20087;-45
2020/12/21 07:30:15;;;;;;;27.13;14.73;;;;;;;3.46;100.00;101623.63;4974252;28;20046;-44
2020/12/21 07:32:42;;;;;;;27.17;14.27;;;;;;;3.50;100.00;101623.09;4969878;28;20073;-41
2020/12/21 07:35:11;;;;;;;29.35;15.93;;;;;;;3.42;100.00;101622.56;4971505;28;20063;-44
2020/12/21 07:37:56;;;;;;;26.02;14.32;;;;;;;3.94;100.00;101615.97;4968314;28;20545;-42
2020/12/21 07:40:24;;;;;;;28.98;15.60;;;;;;;3.64;99.69;101617.31;4976721;28;20570;-41
2020/12/21 07:42:53;;;;;;;23.52;13.10;;;;;;;3.58;100.00;101612.72;4967734;28;20106;-41
2020/12/21 07:45:23;;;;;;;24.17;14.15;;;;;;;3.63;99.93;101615.56;4970251;28;20124;-42
2020/12/21 07:47:49;;;;;;;23.10;13.77;;;;;;;3.80;99.80;101614.19;4967796;28;20050;-42
2020/12/21 07:50:16;;;;;;;25.55;13.85;;;;;;;3.68;100.00;101620.94;4964494;28;20057;-41
2020/12/21 07:52:43;;;;;;;24.40;13.88;;;;;;;3.54;100.00;101617.47;4968144;28;20054;-44
2020/12/21 07:55:10;;;;;;;25.77;14.38;;;;;;;3.44;100.00;101621.00;4970950;28;20126;-43
2020/12/21 07:57:36;;;;;;;25.60;14.23;;;;;;;3.56;100.00;101618.47;4966491;28;20762;-41
2020/12/21 08:00:04;;;;;;;25.30;14.32;;;;;;;3.44;100.00;101621.00;4969136;28;20291;-42
2020/12/21 08:02:32;;;;;;;22.73;13.48;;;;;;;3.43;100.00;101623.44;4971018;28;20153;-45
2020/12/21 08:04:58;;;;;;;25.88;15.13;;;;;;;3.49;99.82;101629.81;4970663;28;20058;-42
2020/12/21 08:07:29;;;;;;;22.05;14.02;;;;;;;3.85;98.94;101628.03;4973802;28;20101;-42
2020/12/21 08:09:56;;;;;;;25.67;14.82;;;;;;;3.61;99.68;101629.78;4965778;28;20039;-41
2020/12/21 08:12:22;;;;;;;24.30;14.48;;;;;;;3.64;99.58;101637.56;4971832;28;20043;-41
2020/12/21 08:14:59;;;;;;;23.80;14.25;;;;;;;3.85;99.51;101645.78;4970582;28;20058;-41
2020/12/21 08:17:29;;;;;;;26.83;14.40;;;;;;;3.55;99.75;101639.47;4967862;28;20451;-42
2020/12/21 08:20:01;;;;;;;25.98;14.35;;;;;;;3.39;100.00;101640.06;4970931;28;20046;-42
2020/12/21 08:22:30;;;;;;;25.85;15.02;;;;;;;3.34;100.00;101648.13;4967727;28;20125;-41
2020/12/21 08:25:02;;;;;;;26.70;14.30;;;;;;;3.73;100.00;101642.38;4970652;28;20047;-41
2020/12/21 08:27:29;;;;;;;23.42;14.05;;;;;;;3.57;100.00;101643.00;4966621;28;20097;-42
2020/12/21 08:30:19;;;;;;;25.48;15.85;;;;;;;3.88;99.84;101650.16;4971735;28;20129;-46
2020/12/21 08:32:46;;;;;;;28.05;14.57;;;;;;;3.93;98.61;101651.34;4965486;28;20046;-41
2020/12/21 08:35:22;;;;;;;27.90;16.10;;;;;;;3.88;97.56;101643.41;4968272;28;20516;-41
2020/12/21 08:37:49;;;;;;;27.42;15.32;;;;;;;4.05;98.85;101657.25;4971685;28;20141;-41
2020/12/21 08:40:16;;;;;;;24.42;14.45;;;;;;;4.26;97.32;101652.75;4969770;28;20054;-43
2020/12/21 08:42:46;;;;;;;20.60;12.88;;;;;;;4.10;97.26;101648.28;4969370;28;20468;-49
2020/12/21 08:45:20;;;;;;;26.95;15.45;;;;;;;4.24;97.86;101651.75;4971397;28;20050;-41
2020/12/21 08:47:48;;;;;;;19.10;12.45;;;;;;;4.42;96.94;101652.97;4974204;28;20128;-42
2020/12/21 08:50:15;;;;;;;26.00;13.30;;;;;;;4.36;96.83;101657.63;4976997;28;20050;-42
2020/12/21 08:52:41;;;;;;;23.38;12.43;;;;;;;5.15;95.88;101650.88;4969222;28;20078;-42
2020/12/21 08:55:08;;;;;;;18.27;11.23;;;;;;;5.57;91.59;101650.97;4969524;28;20047;-43
2020/12/21 08:57:39;;;;;;;18.92;11.52;;;;;;;5.68;90.95;101651.63;4970546;28;20046;-47
2020/12/21 09:00:05;;;;;;;19.80;11.70;;;;;;;5.83;89.90;101662.75;4966421;28;20047;-43
2020/12/21 09:02:32;;;;;;;16.35;10.32;;;;;;;6.46;87.55;101650.31;4969150;28;20058;-41
2020/12/21 09:04:59;;;;;;;13.30;9.52;;;;;;;7.41;82.61;101656.50;4968764;28;20047;-41
2020/12/21 09:07:34;;;;;;;16.77;9.40;;;;;;;8.01;79.59;101652.00;4966470;28;20050;-43
2020/12/21 09:10:01;;;;;;;11.38;8.50;;;;;;;8.72;75.84;101647.09;4965463;28;20051;-43
2020/12/21 09:12:29;;;;;;;14.77;9.10;;;;;;;8.90;74.54;101658.19;4970834;28;20050;-45
2020/12/21 09:14:55;;;;;;;12.93;8.02;;;;;;;9.58;71.32;101646.88;4966905;28;20129;-48
2020/12/21 09:17:22;;;;;;;10.90;7.82;;;;;;;10.87;66.72;101653.25;4971497;28;20050;-42
2020/12/21 09:19:48;;;;;;;11.35;8.13;;;;;;;10.43;67.05;101638.63;4966118;28;20055;-42
2020/12/21 09:22:14;;;;;;;9.65;7.80;;;;;;;11.62;62.92;101645.84;4966724;28;20050;-45
2020/12/21 09:24:41;;;;;;;10.32;7.60;;;;;;;11.47;62.57;101655.56;4966954;28;20058;-44
2020/12/21 09:27:07;;;;;;;11.10;7.13;;;;;;;11.51;62.42;101665.13;4971504;28;20046;-43
2020/12/21 09:29:34;;;;;;;10.45;7.88;;;;;;;11.18;65.06;101664.69;4966313;28;20047;-46
2020/12/21 09:32:00;;;;;;;9.70;6.95;;;;;;;10.33;65.89;101662.09;4972069;28;20078;-43
2020/12/21 09:34:27;;;;;;;10.48;8.02;;;;;;;9.42;70.57;101659.75;4973005;28;20097;-43
2020/12/21 09:36:53;;;;;;;11.40;7.85;;;;;;;8.98;73.19;101661.13;4967234;28;20130;-44
2020/12/21 09:39:20;;;;;;;11.27;8.35;;;;;;;8.09;76.15;101648.19;4969034;28;20307;-43
2020/12/21 09:41:46;;;;;;;11.65;8.15;;;;;;;7.78;78.39;101651.69;4967611;28;20106;-43
2020/12/21 09:44:13;;;;;;;11.63;8.07;;;;;;;8.34;76.00;101643.50;4971008;28;20104;-45
2020/12/21 09:46:39;;;;;;;13.93;9.50;;;;;;;7.73;79.13;101639.50;4964863;28;20054;-42
2020/12/21 09:49:06;;;;;;;14.23;8.68;;;;;;;7.63;79.24;101639.03;4972283;28;20078;-41
2020/12/21 09:51:32;;;;;;;12.52;8.93;;;;;;;7.71;80.29;101643.63;4965174;28;20046;-43
2020/12/21 09:53:59;;;;;;;10.95;7.45;;;;;;;7.61;80.09;101635.50;4963312;28;20043;-44
2020/12/21 09:56:25;;;;;;;15.15;7.78;;;;;;;7.41;81.30;101628.47;4966097;28;20089;-42
2020/12/21 09:58:52;;;;;;;12.75;7.95;;;;;;;7.56;79.85;101624.19;4965822;28;20055;-42
2020/12/21 10:01:19;;;;;;;13.10;8.13;;;;;;;7.07;81.45;101625.75;4967279;28;20464;-42
2020/12/21 10:03:45;;;;;;;13.70;8.30;;;;;;;7.41;81.85;101618.28;4965974;28;20509;-42
2020/12/21 10:06:12;;;;;;;13.48;8.77;;;;;;;8.05;78.11;101613.97;4970816;28;20100;-42
2020/12/21 10:08:40;;;;;;;13.52;7.68;;;;;;;8.30;76.99;101616.06;4967147;28;20050;-44
2020/12/21 10:11:06;;;;;;;13.20;8.18;;;;;;;8.55;75.84;101608.00;4968548;28;20051;-42
2020/12/21 10:13:33;;;;;;;10.38;6.88;;;;;;;9.21;73.06;101607.66;4966054;28;20047;-44
2020/12/21 10:16:00;;;;;;;9.98;6.50;;;;;;;7.98;76.50;101611.03;4966729;28;20051;-43
2020/12/21 10:18:28;;;;;;;11.43;7.05;;;;;;;8.18;76.74;101607.84;4965614;28;20074;-43
2020/12/21 10:20:54;;;;;;;11.13;7.63;;;;;;;7.72;79.30;101610.59;4969865;28;20054;-42
2020/12/21 10:23:21;;;;;;;10.70;7.43;;;;;;;7.58;80.48;101604.78;4968934;28;20566;-47
2020/12/21 10:25:48;;;;;;;13.15;7.57;;;;;;;8.17;78.01;101601.81;4966181;28;20054;-44
2020/12/21 10:28:15;;;;;;;11.07;7.38;;;;;;;8.10;78.12;101606.56;4968660;28;20050;-44
2020/12/21 10:30:42;;;;;;;12.55;7.30;;;;;;;8.23;77.68;101595.28;4969377;28;20047;-44
2020/12/21 10:33:08;;;;;;;12.07;6.53;;;;;;;7.79;79.17;101604.13;4972071;28;20046;-42
2020/12/21 10:35:38;;;;;;;10.50;7.10;;;;;;;7.67;79.98;101599.25;4970129;28;20440;-45
2020/12/21 10:38:05;;;;;;;8.77;6.40;;;;;;;6.96;83.60;101593.75;4971994;28;20460;-43
2020/12/21 10:40:31;;;;;;;14.13;7.60;;;;;;;7.21;83.44;101595.94;4970797;28;20054;-45
2020/12/21 10:42:58;;;;;;;11.85;7.70;;;;;;;7.17;82.21;101592.38;4966076;28;20126;-42
2020/12/21 10:45:24;;;;;;;11.85;7.82;;;;;;;7.53;81.94;101590.88;4971314;28;20053;-45
2020/12/21 10:47:51;;;;;;;12.90;7.32;;;;;;;7.22;82.97;101587.53;4961997;28;20055;-42
2020/12/21 10:50:17;;;;;;;13.13;7.70;;;;;;;7.18;83.11;101588.16;4962341;28;20420;-42
2020/12/21 10:52:43;;;;;;;13.30;7.75;;;;;;;7.34;82.10;101590.72;4965455;28;20047;-42
2020/12/21 10:55:10;;;;;;;13.80;7.57;;;;;;;6.80;84.56;101580.19;4968792;28;20058;-42
2020/12/21 10:57:37;;;;;;;12.90;7.97;;;;;;;6.77;84.60;101580.00;4966887;28;20145;-42
2020/12/21 11:00:07;;;;;;;12.63;7.22;;;;;;;7.18;83.49;101580.50;4961352;28;20051;-42
2020/12/21 11:02:34;;;;;;;11.48;7.03;;;;;;;7.45;82.20;101576.88;4968828;28;20129;-46
2020/12/21 11:05:00;;;;;;;11.63;7.85;;;;;;;7.12;83.38;101581.06;4966431;28;20110;-42
2020/12/21 11:07:28;;;;;;;12.10;7.47;;;;;;;6.97;84.50;101573.44;4965938;28;20758;-46
2020/12/21 11:10:09;;;;;;;11.82;6.88;;;;;;;7.53;80.68;101578.13;4968398;28;20039;-43
2020/12/21 11:12:37;;;;;;;16.63;6.97;;;;;;;7.47;80.97;101580.38;4965953;28;20055;-44
2020/12/21 11:15:05;;;;;;;12.00;7.05;;;;;;;7.38;81.79;101578.22;4956746;28;20126;-42
2020/12/21 11:17:31;;;;;;;13.95;7.20;;;;;;;7.76;80.05;101569.13;4968045;28;20097;-45
2020/12/21 11:19:58;;;;;;;9.73;5.80;;;;;;;8.02;79.55;101574.69;4978608;28;20150;-43
2020/12/21 11:22:24;;;;;;;8.52;6.13;;;;;;;8.37;76.79;101571.38;4969217;28;20105;-43